Time;durP1;ratioP1;P1;durP2;ratioP2;P2;SDS_P1;SDS_P2;PMS_P1;PMS_P2;Temp;Humidity;BMP_temperature;BMP_pressure;BME280_temperature;BME280_humidity;BME280_pressure;Samples;Min_cycle;Max_cycle;Signal;HPM_P1;HPM_P2
2021/01/17 00:00:53;;;;;;;24.67;8.30;;;;;;;-11.85;74.13;100917.18;1798609;79;20923;-56
2021/01/17 00:03:21;;;;;;;18.67;6.73;;;;;;;-11.91;73.91;100907.78;1798582;79;21478;-56
2021/01/17 00:05:49;;;;;;;22.17;7.97;;;;;;;-11.97;73.49;100921.23;1798640;79;21035;-55
2021/01/17 00:08:18;;;;;;;24.47;7.73;;;;;;;-12.03;73.14;100918.33;1798591;79;21404;-56
2021/01/17 00:10:46;;;;;;;18.77;6.30;;;;;;;-12.09;72.83;100906.80;1798515;79;21141;-56
2021/01/17 00:13:15;;;;;;;12.90;4.90;;;;;;;-12.15;72.29;100921.95;1798612;79;21169;-56
2021/01/17 00:15:43;;;;;;;14.70;5.77;;;;;;;-12.20;72.17;100904.38;1798483;79;21104;-56
2021/01/17 00:18:11;;;;;;;12.53;4.20;;;;;;;-12.23;72.58;100921.91;1798649;79;21047;-57
2021/01/17 00:20:40;;;;;;;20.83;7.83;;;;;;;-12.27;71.92;100901.44;1797825;79;21207;-55
2021/01/17 00:23:08;;;;;;;12.03;4.87;;;;;;;-12.26;72.10;100907.52;1798493;79;20995;-55
2021/01/17 00:25:35;;;;;;;20.37;6.27;;;;;;;-12.25;71.29;100901.55;1798527;79;21118;-55
2021/01/17 00:28:03;;;;;;;20.17;6.27;;;;;;;-12.26;70.86;100913.98;1798587;79;21058;-55
2021/01/17 00:30:32;;;;;;;19.97;6.73;;;;;;;-12.27;70.14;100905.70;1798506;79;21038;-56
2021/01/17 00:33:01;;;;;;;15.50;5.60;;;;;;;-12.27;70.04;100906.98;1798604;79;21347;-55
2021/01/17 00:35:31;;;;;;;21.50;4.63;;;;;;;-12.28;69.71;100903.53;1798473;79;20932;-56
2021/01/17 00:38:00;;;;;;;19.60;7.13;;;;;;;-12.30;69.51;100909.39;1777707;79;21076;-55
2021/01/17 00:40:28;;;;;;;20.43;6.33;;;;;;;-12.34;69.13;100905.76;1763645;81;21109;-55
2021/01/17 00:42:56;;;;;;;17.93;6.23;;;;;;;-12.37;68.83;100908.16;1795074;80;21156;-55
2021/01/17 00:45:27;;;;;;;17.00;4.73;;;;;;;-12.40;68.14;100914.41;1775260;80;21360;-56
2021/01/17 00:47:55;;;;;;;17.03;5.63;;;;;;;-12.45;67.93;100921.91;1763376;81;21125;-56
2021/01/17 00:50:25;;;;;;;22.50;6.60;;;;;;;-12.48;67.87;100898.86;1774701;80;21119;-54
2021/01/17 00:52:55;;;;;;;25.17;8.23;;;;;;;-12.51;68.11;100903.42;1760445;81;21129;-55
2021/01/17 00:55:24;;;;;;;22.13;7.03;;;;;;;-12.54;68.20;100904.53;1774477;80;21174;-55
2021/01/17 00:57:52;;;;;;;29.33;7.73;;;;;;;-12.57;68.30;100896.60;1760502;81;21143;-56
2021/01/17 01:00:23;;;;;;;17.87;6.10;;;;;;;-12.60;68.50;100889.96;1748470;80;21537;-56
2021/01/17 01:02:56;;;;;;;20.77;6.00;;;;;;;-12.64;68.55;100896.62;1752573;81;21137;-55
2021/01/17 01:05:24;;;;;;;29.03;7.93;;;;;;;-12.67;68.90;100906.39;1774601;80;21108;-54
2021/01/17 01:07:52;;;;;;;19.53;6.97;;;;;;;-12.72;69.12;100900.02;1760548;81;21081;-55
2021/01/17 01:10:21;;;;;;;22.20;5.17;;;;;;;-12.73;68.93;100903.41;1774590;80;21321;-56
2021/01/17 01:12:54;;;;;;;18.50;6.03;;;;;;;-12.74;68.91;100901.62;1760516;81;21070;-55
2021/01/17 01:15:22;;;;;;;24.53;7.67;;;;;;;-12.78;68.98;100890.61;1774614;80;21079;-56
2021/01/17 01:17:50;;;;;;;26.93;8.07;;;;;;;-12.81;69.03;100883.97;1760517;81;21050;-55
2021/01/17 01:20:21;;;;;;;24.40;8.70;;;;;;;-12.83;69.33;100897.19;1774568;80;21094;-55
2021/01/17 01:22:50;;;;;;;30.23;10.47;;;;;;;-12.84;69.11;100892.83;1760563;81;21220;-55
2021/01/17 01:25:18;;;;;;;31.03;9.77;;;;;;;-12.88;68.90;100887.86;1774570;80;21043;-55
2021/01/17 01:27:47;;;;;;;24.40;8.13;;;;;;;-12.89;68.87;100890.36;1760533;81;21113;-55
2021/01/17 01:30:16;;;;;;;22.30;6.67;;;;;;;-12.89;68.96;100887.78;1774597;80;21155;-56
2021/01/17 01:32:43;;;;;;;23.10;7.57;;;;;;;-12.90;69.22;100895.03;1760458;81;21100;-55
2021/01/17 01:35:12;;;;;;;36.13;9.40;;;;;;;-12.89;69.52;100887.78;1774764;80;22224;-55
2021/01/17 01:37:39;;;;;;;25.27;7.37;;;;;;;-12.91;69.13;100903.16;1761991;81;21078;-55
2021/01/17 01:40:10;;;;;;;28.47;7.90;;;;;;;-12.92;68.91;100922.45;1786821;80;21069;-55
2021/01/17 01:42:42;;;;;;;26.63;8.27;;;;;;;-12.96;68.66;100902.87;1786659;79;21113;-56
2021/01/17 01:45:11;;;;;;;22.23;6.53;;;;;;;-12.98;68.63;100881.64;1786819;80;21054;-55
2021/01/17 01:47:38;;;;;;;22.13;6.93;;;;;;;-13.04;68.48;100892.47;1786693;80;21317;-55
2021/01/17 01:50:08;;;;;;;17.07;6.10;;;;;;;-13.05;68.82;100902.30;1783233;79;21165;-56
2021/01/17 01:52:35;;;;;;;28.57;9.27;;;;;;;-13.06;68.92;100890.20;1780976;80;21206;-55
2021/01/17 01:55:04;;;;;;;24.60;6.83;;;;;;;-13.08;68.96;100886.63;1780987;80;21172;-55
2021/01/17 01:57:32;;;;;;;18.57;6.33;;;;;;;-13.08;69.00;100898.63;1750731;80;21105;-54
2021/01/17 01:59:59;;;;;;;20.70;6.03;;;;;;;-13.09;68.95;100893.88;1780861;80;21250;-56
2021/01/17 02:02:27;;;;;;;20.50;7.93;;;;;;;-13.10;69.10;100902.01;1780844;80;21152;-55
2021/01/17 02:04:54;;;;;;;23.60;7.57;;;;;;;-13.11;69.25;100892.48;1780896;80;21026;-55
2021/01/17 02:07:49;;;;;;;20.20;6.37;;;;;;;-13.09;69.68;100900.33;1780933;80;21105;-55
2021/01/17 02:10:17;;;;;;;21.68;7.70;;;;;;;-13.12;69.58;100903.60;1745289;80;21124;-56
2021/01/17 02:13:23;;;;;;;15.47;5.77;;;;;;;-13.16;69.43;100909.75;1781018;80;22252;-55
2021/01/17 02:15:53;;;;;;;;;;;;;;;-13.18;69.57;100913.93;1783488;80;21080;-55
2021/01/17 02:18:21;;;;;;;18.07;6.07;;;;;;;-13.24;69.35;100907.59;1780888;80;20131;-55
2021/01/17 02:20:50;;;;;;;18.03;5.83;;;;;;;-13.28;69.35;100917.23;1781009;80;21508;-55
2021/01/17 02:23:28;;;;;;;18.03;6.50;;;;;;;-13.30;69.64;100923.07;1780854;80;21098;-55
2021/01/17 02:25:55;;;;;;;27.30;8.57;;;;;;;-13.31;69.97;100913.16;1781041;80;22110;-54
2021/01/17 02:28:23;;;;;;;21.93;6.87;;;;;;;-13.33;69.84;100913.47;1780786;80;21109;-55
2021/01/17 02:30:52;;;;;;;17.13;6.27;;;;;;;-13.35;69.91;100925.38;1780999;80;21057;-55
2021/01/17 02:33:29;;;;;;;14.70;4.80;;;;;;;-13.37;70.27;100940.25;1780957;80;21510;-55
2021/01/17 02:36:23;;;;;;;17.47;6.33;;;;;;;-13.40;70.42;100939.64;1749868;80;37171;-55
2021/01/17 02:39:10;;;;;;;16.27;4.87;;;;;;;-13.41;70.44;100937.86;1735803;80;21380;-55
2021/01/17 02:42:00;;;;;;;9.03;3.70;;;;;;;-13.43;70.25;100947.22;1734282;82;21165;-55
2021/01/17 02:44:31;;;;;;;21.73;5.07;;;;;;;-13.45;70.17;100941.08;1734404;82;21117;-55
2021/01/17 02:46:59;;;;;;;18.57;6.97;;;;;;;-13.47;70.16;100972.33;1734404;82;21070;-56
2021/01/17 02:49:27;;;;;;;17.23;6.53;;;;;;;-13.50;70.00;100935.61;1734394;80;21072;-55
2021/01/17 02:51:55;;;;;;;19.90;6.10;;;;;;;-13.50;69.90;100942.47;1734875;82;21362;-55
2021/01/17 02:54:35;;;;;;;14.70;5.00;;;;;;;-13.50;70.08;100943.34;1662166;82;21085;-55
2021/01/17 02:57:06;;;;;;;24.40;5.60;;;;;;;-13.50;70.07;100936.02;1733013;82;21207;-54
2021/01/17 02:59:54;;;;;;;17.00;5.27;;;;;;;-13.52;69.92;100933.74;1734797;82;21078;-54
2021/01/17 03:02:34;;;;;;;24.60;6.40;;;;;;;-13.54;70.05;100930.67;1734884;82;21086;-54
2021/01/17 03:05:05;;;;;;;11.60;4.60;;;;;;;-13.56;69.90;100925.81;1735002;82;21532;-55
2021/01/17 03:07:36;;;;;;;20.83;5.83;;;;;;;-13.60;69.64;100925.08;1734792;82;21165;-54
2021/01/17 03:10:09;;;;;;;25.30;7.87;;;;;;;-13.61;69.63;100927.17;1707987;82;21106;-55
2021/01/17 03:12:36;;;;;;;11.73;5.35;;;;;;;-13.60;69.52;100919.92;1734962;82;21137;-55
2021/01/17 03:15:06;;;;;;;20.73;5.33;;;;;;;-13.59;69.43;100935.02;1734949;82;21157;-55
2021/01/17 03:17:33;;;;;;;22.80;6.67;;;;;;;-13.60;69.30;100913.48;1734772;82;21421;-55
2021/01/17 03:20:04;;;;;;;24.63;7.73;;;;;;;-13.61;69.34;100907.83;1734896;82;21083;-55
2021/01/17 03:22:32;;;;;;;16.77;5.10;;;;;;;-13.63;69.29;100904.26;1734864;82;21527;-55
2021/01/17 03:25:00;;;;;;;27.20;7.80;;;;;;;-13.63;69.56;100904.26;1734905;82;21157;-55
2021/01/17 03:27:27;;;;;;;17.23;5.67;;;;;;;-13.63;69.42;100897.81;1734949;82;21157;-55
2021/01/17 03:29:55;;;;;;;17.00;6.60;;;;;;;-13.64;69.38;100919.23;1735054;82;21207;-55
2021/01/17 03:32:22;;;;;;;18.50;6.53;;;;;;;-13.66;69.34;100904.06;1734965;82;21125;-55
2021/01/17 03:34:51;;;;;;;22.80;7.23;;;;;;;-13.69;69.27;100900.91;1735048;82;21142;-55
2021/01/17 03:37:19;;;;;;;18.30;5.73;;;;;;;-13.70;69.18;100892.68;1745165;81;21124;-55
2021/01/17 03:39:47;;;;;;;25.80;9.90;;;;;;;-13.71;69.11;100905.05;1766999;81;21122;-56
2021/01/17 03:42:14;;;;;;;22.40;7.17;;;;;;;-13.68;69.20;100906.94;1767010;81;21260;-56
2021/01/17 03:44:42;;;;;;;19.70;6.63;;;;;;;-13.70;68.72;100908.15;1766961;81;20947;-55
2021/01/17 03:47:10;;;;;;;16.53;4.13;;;;;;;-13.71;68.73;100887.41;1767109;81;20931;-56
2021/01/17 03:49:37;;;;;;;17.93;5.03;;;;;;;-13.71;68.62;100888.70;1768482;80;20991;-55
2021/01/17 03:52:05;;;;;;;27.30;7.43;;;;;;;-13.72;68.84;100897.23;1759919;81;21555;-54
2021/01/17 03:54:33;;;;;;;13.67;4.40;;;;;;;-13.71;68.68;100879.67;1776532;80;21372;-54
2021/01/17 03:57:01;;;;;;;15.47;4.50;;;;;;;-13.72;68.41;100884.33;1759744;81;21070;-55
2021/01/17 03:59:28;;;;;;;27.50;6.97;;;;;;;-13.72;68.43;100894.64;1776590;80;21139;-55
2021/01/17 04:01:56;;;;;;;14.57;5.10;;;;;;;-13.73;68.49;100886.42;1759758;81;21097;-55
2021/01/17 04:04:24;;;;;;;11.27;4.10;;;;;;;-13.73;68.34;100886.42;1776621;80;21063;-55
2021/01/17 04:06:51;;;;;;;23.97;7.13;;;;;;;-13.74;68.28;100892.37;1759753;81;21382;-55
2021/01/17 04:09:19;;;;;;;17.13;4.93;;;;;;;-13.71;68.73;100880.95;1776612;80;21059;-55
2021/01/17 04:11:50;;;;;;;18.83;5.43;;;;;;;-13.68;68.75;100879.86;1759632;81;21125;-55
2021/01/17 04:14:17;;;;;;;12.70;5.23;;;;;;;-13.69;68.75;100898.33;1776627;80;21142;-55
2021/01/17 04:16:52;;;;;;;23.17;8.23;;;;;;;-13.68;68.58;100881.16;1759766;81;21105;-55
2021/01/17 04:19:19;;;;;;;18.87;6.00;;;;;;;-13.69;68.60;100881.95;1776629;80;21141;-55
2021/01/17 04:21:48;;;;;;;24.83;7.00;;;;;;;-13.70;68.70;100872.05;1759598;81;21121;-56
2021/01/17 04:24:15;;;;;;;20.53;7.57;;;;;;;-13.69;68.78;100890.97;1776634;80;21115;-56
2021/01/17 04:26:43;;;;;;;28.53;8.60;;;;;;;-13.71;68.70;100875.39;1759663;81;21054;-55
2021/01/17 04:29:10;;;;;;;23.80;8.03;;;;;;;-13.70;68.84;100875.01;1776629;80;21068;-55
2021/01/17 04:31:44;;;;;;;25.63;9.07;;;;;;;-13.68;68.90;100881.16;1759724;81;21355;-55
2021/01/17 04:34:12;;;;;;;;;;;;;;;-13.66;68.74;100877.40;1779166;80;21071;-55
2021/01/17 04:36:47;;;;;;;22.33;6.73;;;;;;;-13.68;68.43;100887.59;1791133;80;20128;-55
2021/01/17 04:39:15;;;;;;;18.93;7.13;;;;;;;-13.71;68.48;100874.52;1753896;80;21106;-55
2021/01/17 04:41:44;;;;;;;23.77;7.07;;;;;;;-13.72;68.35;100880.05;1787193;80;21084;-55
2021/01/17 04:44:12;;;;;;;22.17;7.87;;;;;;;-13.75;67.91;100877.28;1786947;80;21176;-55
2021/01/17 04:46:40;;;;;;;34.70;8.23;;;;;;;-13.77;67.79;100884.02;1787048;80;21147;-55
2021/01/17 04:49:09;;;;;;;17.43;6.30;;;;;;;-13.80;68.04;100877.38;1787066;80;21636;-55
2021/01/17 04:51:37;;;;;;;21.07;7.40;;;;;;;-13.80;68.25;100890.69;1783284;80;21584;-55
2021/01/17 04:54:05;;;;;;;23.90;7.83;;;;;;;-13.81;68.25;100889.78;1790345;80;21140;-55
2021/01/17 04:56:41;;;;;;;22.80;6.00;;;;;;;-13.83;68.20;100905.13;1790491;80;21355;-55
2021/01/17 04:59:12;;;;;;;21.13;7.37;;;;;;;-13.84;68.23;100894.33;1790235;80;21200;-55
2021/01/17 05:01:53;;;;;;;14.53;6.30;;;;;;;-13.85;68.21;100907.13;1790388;80;21096;-55
2021/01/17 05:04:43;;;;;;;29.47;7.33;;;;;;;-13.86;68.26;100886.89;1790440;80;21042;-55
2021/01/17 05:07:21;;;;;;;13.70;5.23;;;;;;;-13.88;68.30;100874.30;1789987;80;21530;-53
2021/01/17 05:10:04;;;;;;;19.90;6.20;;;;;;;-13.87;68.57;100895.83;1790391;80;21188;-56
2021/01/17 05:12:51;;;;;;;30.83;7.03;;;;;;;-13.92;68.42;100895.92;1788883;80;21061;-56
2021/01/17 05:15:22;;;;;;;24.80;6.27;;;;;;;-13.95;68.79;100882.43;1790388;80;21117;-56
2021/01/17 05:17:55;;;;;;;16.10;5.77;;;;;;;-13.96;69.18;100887.09;1790527;80;21474;-56
2021/01/17 05:20:22;;;;;;;21.90;7.33;;;;;;;-13.98;69.51;100877.08;1790435;80;21066;-55
2021/01/17 05:22:50;;;;;;;18.53;6.47;;;;;;;-14.01;69.53;100870.44;1790438;80;21638;-55
2021/01/17 05:25:17;;;;;;;26.90;7.20;;;;;;;-14.04;69.58;100892.11;1790291;80;21124;-55
2021/01/17 05:27:48;;;;;;;18.97;5.03;;;;;;;-14.06;69.98;100887.25;1790437;80;21098;-55
2021/01/17 05:30:18;;;;;;;18.33;5.67;;;;;;;-14.09;70.11;100889.62;1790533;80;21096;-56
2021/01/17 05:32:53;;;;;;;17.73;5.67;;;;;;;-14.13;70.57;100897.16;1790420;80;21188;-55
2021/01/17 05:35:23;;;;;;;21.13;5.53;;;;;;;-14.14;70.75;100898.37;1790373;80;21282;-55
2021/01/17 05:37:53;;;;;;;15.17;5.07;;;;;;;-14.16;70.98;100886.66;1772298;80;21109;-55
2021/01/17 05:40:22;;;;;;;18.30;5.33;;;;;;;-14.16;71.29;100916.66;1757656;81;21451;-55
2021/01/17 05:42:50;;;;;;;16.47;5.43;;;;;;;-14.21;71.47;100902.20;1788729;80;21518;-55
2021/01/17 05:45:23;;;;;;;19.63;6.60;;;;;;;-14.24;71.87;100889.13;1768961;81;21177;-55
2021/01/17 05:48:00;;;;;;;15.60;4.93;;;;;;;-14.25;72.00;100892.49;1757573;81;21145;-56
2021/01/17 05:50:31;;;;;;;12.13;5.07;;;;;;;-14.28;72.20;100884.15;1769541;80;21582;-55
2021/01/17 05:53:02;;;;;;;23.57;6.53;;;;;;;-14.28;72.79;100905.14;1756757;81;21062;-55
2021/01/17 05:55:44;;;;;;;14.97;5.07;;;;;;;-14.28;72.89;100899.98;1776737;80;21167;-55
2021/01/17 05:58:31;;;;;;;15.73;5.77;;;;;;;-14.28;73.52;100902.56;1776953;80;21476;-55
2021/01/17 06:01:19;;;;;;;19.63;5.97;;;;;;;-14.27;73.89;100903.06;1756708;81;21274;-55
2021/01/17 06:03:52;;;;;;;16.47;4.77;;;;;;;-14.23;74.14;100904.17;1776773;80;21595;-55
2021/01/17 06:06:28;;;;;;;22.23;7.00;;;;;;;-14.23;74.49;100907.66;1756746;81;21185;-55
2021/01/17 06:08:57;;;;;;;20.07;6.30;;;;;;;-14.21;74.62;100904.78;1776714;80;21135;-56
2021/01/17 06:11:27;;;;;;;22.47;5.40;;;;;;;-14.17;74.48;100900.33;1756707;81;21562;-55
2021/01/17 06:14:00;;;;;;;20.17;6.37;;;;;;;-14.15;74.02;100910.34;1776714;80;21264;-55
2021/01/17 06:16:39;;;;;;;24.00;7.30;;;;;;;-14.12;74.03;100920.85;1756730;81;21115;-55
2021/01/17 06:19:08;;;;;;;23.67;6.50;;;;;;;-14.12;73.27;100932.45;1776734;80;21103;-55
2021/01/17 06:21:37;;;;;;;23.20;6.63;;;;;;;-14.11;73.07;100923.92;1776804;80;21139;-55
2021/01/17 06:24:07;;;;;;;13.47;4.60;;;;;;;-14.08;72.71;100914.61;1776795;80;21150;-55
2021/01/17 06:26:39;;;;;;;20.03;6.83;;;;;;;-14.02;73.00;100917.63;1776846;80;21358;-55
2021/01/17 06:29:10;;;;;;;17.70;6.37;;;;;;;-13.97;72.35;100934.28;1776682;80;21143;-55
2021/01/17 06:31:39;;;;;;;23.63;5.97;;;;;;;-13.95;72.32;100928.83;1776843;80;21134;-55
2021/01/17 06:34:14;;;;;;;19.17;6.67;;;;;;;-13.94;72.38;100929.33;1756687;81;21109;-55
2021/01/17 06:36:46;;;;;;;20.27;4.53;;;;;;;-13.92;72.45;100925.16;1776340;80;21072;-55
2021/01/17 06:39:21;;;;;;;16.40;5.90;;;;;;;-13.86;72.00;100937.57;1770876;81;21369;-56
2021/01/17 06:41:57;;;;;;;16.30;4.97;;;;;;;-13.85;71.89;100941.52;1770686;80;21092;-56
2021/01/17 06:44:32;;;;;;;26.37;7.40;;;;;;;-13.83;71.33;100932.20;1770175;80;21080;-55
2021/01/17 06:47:00;;;;;;;13.10;4.90;;;;;;;-13.83;71.35;100930.91;1770716;81;21135;-56
2021/01/17 06:49:31;;;;;;;27.43;7.37;;;;;;;-13.80;71.24;100927.66;1770844;80;21107;-56
2021/01/17 06:52:02;;;;;;;17.00;6.50;;;;;;;-13.74;71.03;100931.05;1770726;79;21149;-56
2021/01/17 06:54:40;;;;;;;20.37;5.87;;;;;;;-13.74;70.48;100946.52;1770697;81;21087;-56
2021/01/17 06:57:08;;;;;;;25.40;9.40;;;;;;;-13.70;70.72;100940.77;1770805;81;21123;-55
2021/01/17 06:59:42;;;;;;;23.00;5.80;;;;;;;-13.66;70.61;100959.51;1770675;81;21127;-56
2021/01/17 07:02:24;;;;;;;27.57;6.37;;;;;;;-13.68;69.91;100949.48;1770895;81;21047;-56
2021/01/17 07:05:09;;;;;;;14.43;5.40;;;;;;;-13.75;69.91;100934.00;1770920;81;21314;-55
2021/01/17 07:08:04;;;;;;;18.73;6.28;;;;;;;-13.74;70.24;100933.62;1771008;81;21183;-55
2021/01/17 07:10:39;;;;;;;;;;;;;;;-13.73;69.82;100937.98;1773532;81;21088;-56
2021/01/17 07:13:09;;;;;;;19.83;5.73;;;;;;;-13.74;70.37;100925.89;1770873;81;20219;-56
2021/01/17 07:15:39;;;;;;;18.47;6.63;;;;;;;-13.75;70.75;100925.39;1771105;80;21539;-56
2021/01/17 07:18:10;;;;;;;15.53;5.33;;;;;;;-13.72;71.53;100926.47;1770878;81;21373;-56
2021/01/17 07:20:40;;;;;;;22.87;7.27;;;;;;;-13.64;72.05;100936.00;1770882;81;21121;-56
2021/01/17 07:23:09;;;;;;;26.13;7.80;;;;;;;-13.58;71.62;100958.34;1771001;81;21139;-56
2021/01/17 07:25:44;;;;;;;27.00;6.43;;;;;;;-13.55;71.05;100931.46;1770853;81;21155;-55
2021/01/17 07:28:17;;;;;;;18.87;6.03;;;;;;;-13.51;70.86;100963.91;1770934;81;21040;-56
2021/01/17 07:30:54;;;;;;;17.57;5.57;;;;;;;-13.51;69.61;100945.84;1770940;81;21912;-55
2021/01/17 07:33:27;;;;;;;20.23;6.87;;;;;;;-13.56;69.82;100955.47;1770833;81;21166;-56
2021/01/17 07:36:04;;;;;;;14.97;5.77;;;;;;;-13.56;69.75;100940.38;1771222;81;21159;-56
2021/01/17 07:38:33;;;;;;;16.43;6.03;;;;;;;-13.51;70.17;100949.72;1775630;80;21560;-56
2021/01/17 07:41:07;;;;;;;20.70;6.30;;;;;;;-13.44;70.08;100960.92;1777027;80;21484;-56
2021/01/17 07:43:45;;;;;;;17.95;6.67;;;;;;;-13.40;69.59;100955.13;1756925;81;21178;-56
2021/01/17 07:46:16;;;;;;;18.87;6.53;;;;;;;-13.43;68.77;100942.06;1770771;81;21154;-56
2021/01/17 07:48:48;;;;;;;22.27;6.60;;;;;;;-13.46;68.50;100936.71;1756916;81;21534;-55
2021/01/17 07:51:16;;;;;;;19.77;6.40;;;;;;;-13.46;68.84;100958.64;1776740;80;21163;-55
2021/01/17 07:54:19;;;;;;;20.83;5.97;;;;;;;-13.43;69.25;100957.55;1776976;80;21046;-56
2021/01/17 07:56:47;;;;;;;19.47;5.73;;;;;;;-13.39;69.17;100965.56;1756772;81;21527;-56
2021/01/17 07:59:15;;;;;;;11.47;4.40;;;;;;;-13.42;68.54;100958.00;1770794;80;21155;-56
2021/01/17 08:01:44;;;;;;;19.33;5.60;;;;;;;-13.39;69.69;100960.78;1756864;81;21042;-56
2021/01/17 08:04:18;;;;;;;28.23;7.33;;;;;;;-13.31;70.25;100971.22;1770876;81;21515;-56
2021/01/17 08:06:49;;;;;;;16.95;5.05;;;;;;;-13.24;69.58;100959.20;1757060;81;21157;-55
2021/01/17 08:09:19;;;;;;;16.30;5.60;;;;;;;-13.18;68.89;100973.28;1770800;81;21264;-55
2021/01/17 08:11:56;;;;;;;14.13;5.43;;;;;;;-13.12;69.01;100980.16;1756786;81;21116;-56
2021/01/17 08:14:27;;;;;;;19.30;6.83;;;;;;;-13.06;68.56;100975.77;1770863;81;21492;-57
2021/01/17 08:17:16;;;;;;;21.70;6.23;;;;;;;-13.05;67.90;100982.33;1756775;81;21053;-55
2021/01/17 08:19:55;;;;;;;20.07;6.00;;;;;;;-13.04;68.30;100976.37;1776929;80;21114;-56
2021/01/17 08:22:28;;;;;;;17.20;6.63;;;;;;;-13.02;68.48;100985.10;1756810;81;21197;-55
2021/01/17 08:24:57;;;;;;;14.57;4.80;;;;;;;-12.97;67.50;101000.48;1770885;81;21174;-55
2021/01/17 08:27:38;;;;;;;25.07;5.50;;;;;;;-12.96;67.30;100997.52;1756779;81;21141;-55
2021/01/17 08:30:16;;;;;;;19.40;7.27;;;;;;;-12.93;67.32;101001.96;1770793;81;21193;-56
2021/01/17 08:32:50;;;;;;;18.87;6.33;;;;;;;-12.92;66.67;100984.42;1756925;81;21467;-55
2021/01/17 08:35:24;;;;;;;20.88;5.78;;;;;;;-12.86;66.25;100996.42;1776930;80;21413;-56
2021/01/17 08:38:14;;;;;;;22.87;6.30;;;;;;;-12.86;66.25;100996.42;1757627;81;21086;-55
2021/01/17 08:40:52;;;;;;;19.80;6.23;;;;;;;-12.85;65.36;101026.61;1781078;80;21157;-56
2021/01/17 08:43:32;;;;;;;15.87;6.33;;;;;;;-12.87;65.29;100994.63;1780942;80;21045;-56
2021/01/17 08:45:59;;;;;;;14.87;5.27;;;;;;;-12.89;65.23;100994.52;1781045;80;21116;-55
2021/01/17 08:48:28;;;;;;;15.97;5.50;;;;;;;-12.87;65.00;100999.38;1780940;80;21531;-56
2021/01/17 08:51:17;;;;;;;20.03;6.80;;;;;;;-12.84;64.62;101002.57;1780890;80;21117;-56
2021/01/17 08:53:44;;;;;;;21.97;6.40;;;;;;;-12.90;64.37;100995.73;1781010;80;21058;-55
2021/01/17 08:56:20;;;;;;;16.60;5.43;;;;;;;-12.89;64.46;101005.27;1780946;80;21078;-55
2021/01/17 08:58:50;;;;;;;18.73;5.67;;;;;;;-12.88;64.22;101006.63;1781011;80;21121;-56
2021/01/17 09:01:19;;;;;;;23.13;6.57;;;;;;;-12.91;64.02;101008.15;1780950;80;21533;-56
2021/01/17 09:03:50;;;;;;;19.97;7.17;;;;;;;-12.84;64.36;100999.98;1781065;80;21164;-57
2021/01/17 09:06:23;;;;;;;22.63;7.40;;;;;;;-12.79;64.07;100995.12;1780922;80;21097;-56
2021/01/17 09:08:58;;;;;;;23.40;7.97;;;;;;;-12.77;64.62;100992.23;1780971;80;21069;-56
2021/01/17 09:11:37;;;;;;;22.07;5.40;;;;;;;-12.76;64.47;100980.69;1780945;80;21109;-56
2021/01/17 09:14:14;;;;;;;19.00;5.53;;;;;;;-12.75;64.02;100987.64;1780702;80;21365;-56
2021/01/17 09:16:48;;;;;;;27.00;7.07;;;;;;;-12.78;63.85;100997.78;1780937;80;21050;-56
2021/01/17 09:19:17;;;;;;;23.95;7.90;;;;;;;-12.77;63.74;100998.28;1781079;80;21136;-56
2021/01/17 09:21:45;;;;;;;29.57;7.47;;;;;;;-12.78;64.14;100984.88;1781099;80;21050;-56
2021/01/17 09:24:15;;;;;;;14.43;5.13;;;;;;;-12.80;65.00;100978.72;1750537;80;21092;-57
2021/01/17 09:26:47;;;;;;;27.90;7.40;;;;;;;-12.76;65.35;100997.48;1781075;80;22112;-56
2021/01/17 09:29:26;;;;;;;34.10;8.10;;;;;;;-12.72;65.33;100982.67;1780845;80;21172;-56
2021/01/17 09:32:04;;;;;;;25.87;7.67;;;;;;;-12.70;65.63;100988.85;1781006;80;21054;-55
2021/01/17 09:34:36;;;;;;;25.73;9.70;;;;;;;-12.70;65.57;100999.19;1781038;80;21490;-56
2021/01/17 09:37:08;;;;;;;36.73;11.40;;;;;;;-12.68;65.71;100976.02;1780008;80;21178;-56
2021/01/17 09:39:39;;;;;;;20.00;7.13;;;;;;;-12.64;65.84;100975.81;1776530;80;21196;-55
2021/01/17 09:42:08;;;;;;;22.73;8.67;;;;;;;-12.55;65.85;100982.84;1756646;81;21137;-56
2021/01/17 09:44:36;;;;;;;21.27;7.30;;;;;;;-12.49;66.07;100997.83;1776777;80;21122;-56
2021/01/17 09:47:20;;;;;;;20.83;6.53;;;;;;;-12.47;65.98;100977.77;1756647;81;21078;-55
2021/01/17 09:49:49;;;;;;;17.90;5.90;;;;;;;-12.49;64.91;101002.59;1776925;80;20996;-55
2021/01/17 09:52:22;;;;;;;28.70;9.03;;;;;;;-12.55;64.75;100988.91;1776612;80;21704;-56
2021/01/17 09:54:53;;;;;;;15.37;5.97;;;;;;;-12.56;65.11;101000.42;1756673;81;21082;-56
2021/01/17 09:57:24;;;;;;;25.60;7.70;;;;;;;-12.53;65.19;100996.73;1770904;81;21151;-56
2021/01/17 09:59:53;;;;;;;25.30;7.87;;;;;;;-12.53;64.42;100991.58;1756707;81;21149;-56
2021/01/17 10:02:22;;;;;;;30.33;7.03;;;;;;;-12.48;64.54;100979.86;1776947;80;21464;-56
2021/01/17 10:04:51;;;;;;;20.43;7.30;;;;;;;-12.44;64.00;100999.91;1756727;81;22366;-56
2021/01/17 10:07:22;;;;;;;15.70;5.20;;;;;;;-12.44;64.09;100975.37;1770743;81;21138;-56
2021/01/17 10:09:52;;;;;;;22.97;7.93;;;;;;;-12.42;63.81;100981.52;1756216;81;21093;-55
2021/01/17 10:12:27;;;;;;;25.07;7.73;;;;;;;-12.40;63.39;100981.21;1770792;80;21063;-56
2021/01/17 10:14:54;;;;;;;;;;;;;;;-12.45;63.18;100959.75;1759312;81;21448;-56
2021/01/17 10:17:22;;;;;;;25.83;5.87;;;;;;;-12.47;63.45;100967.43;1776891;80;21709;-56
2021/01/17 10:19:49;;;;;;;18.00;5.50;;;;;;;-12.51;63.23;100982.22;1756609;81;21065;-56
2021/01/17 10:22:17;;;;;;;16.23;4.97;;;;;;;-12.55;62.98;100976.37;1776827;80;20984;-56
2021/01/17 10:24:45;;;;;;;18.90;6.50;;;;;;;-12.59;63.25;100965.36;1756583;81;21192;-55
2021/01/17 10:27:16;;;;;;;23.17;6.67;;;;;;;-12.65;63.24;100988.24;1776832;80;21039;-55
2021/01/17 10:29:43;;;;;;;21.27;7.30;;;;;;;-12.66;63.22;100961.50;1756644;81;21352;-55
2021/01/17 10:32:13;;;;;;;20.60;7.23;;;;;;;-12.64;63.50;100969.36;1770704;80;21074;-56
2021/01/17 10:34:47;;;;;;;18.33;6.77;;;;;;;-12.61;63.37;100972.13;1756833;81;21050;-55
2021/01/17 10:37:17;;;;;;;19.15;7.08;;;;;;;-12.61;63.14;100965.67;1775245;80;21502;-56
2021/01/17 10:39:46;;;;;;;15.23;5.20;;;;;;;-12.64;63.41;100958.61;1769266;80;21119;-56
2021/01/17 10:42:30;;;;;;;22.53;6.23;;;;;;;-12.68;63.55;100965.30;1770790;81;21376;-56
2021/01/17 10:45:07;;;;;;;17.15;5.58;;;;;;;-12.71;63.37;100961.24;1770602;80;21151;-56
2021/01/17 10:47:40;;;;;;;25.37;8.67;;;;;;;-12.73;63.49;100949.89;1770756;81;21405;-56
2021/01/17 10:50:11;;;;;;;13.70;5.07;;;;;;;-12.73;63.82;100935.69;1770733;80;21135;-56
2021/01/17 10:52:43;;;;;;;19.80;6.40;;;;;;;-12.72;63.87;100945.22;1770838;80;21167;-55
2021/01/17 10:55:14;;;;;;;20.23;6.23;;;;;;;-12.68;64.11;100948.89;1770799;81;21492;-55
2021/01/17 10:57:42;;;;;;;18.87;7.10;;;;;;;-12.65;63.77;100933.58;1770781;81;21088;-56
2021/01/17 11:00:11;;;;;;;23.50;7.00;;;;;;;-12.61;64.27;100924.34;1770721;81;21052;-56
2021/01/17 11:02:38;;;;;;;25.03;8.07;;;;;;;-12.57;64.28;100917.27;1770757;81;21143;-56
2021/01/17 11:05:08;;;;;;;23.63;7.90;;;;;;;-12.54;64.31;100926.11;1770659;80;21135;-56
2021/01/17 11:07:35;;;;;;;25.07;8.63;;;;;;;-12.53;63.52;100917.94;1770762;81;21187;-56
2021/01/17 11:10:14;;;;;;;21.57;6.27;;;;;;;-12.50;64.12;100922.41;1770723;81;21084;-56
2021/01/17 11:12:42;;;;;;;13.47;5.90;;;;;;;-12.45;63.16;100925.78;1770727;80;21095;-55
2021/01/17 11:15:15;;;;;;;19.80;6.90;;;;;;;-12.47;62.50;100935.13;1770739;81;21163;-56
2021/01/17 11:17:56;;;;;;;12.03;5.23;;;;;;;-12.51;62.61;100927.97;1769644;80;21055;-56
2021/01/17 11:20:27;;;;;;;18.73;5.80;;;;;;;-12.47;62.93;100914.47;1770831;81;21496;-56
2021/01/17 11:23:04;;;;;;;20.13;6.40;;;;;;;-12.45;62.54;100915.45;1770538;80;21103;-57
2021/01/17 11:25:33;;;;;;;17.63;4.63;;;;;;;-12.42;62.61;100902.70;1770778;81;21172;-56
2021/01/17 11:28:03;;;;;;;17.87;5.90;;;;;;;-12.40;62.80;100908.86;1770669;81;21150;-57
2021/01/17 11:30:32;;;;;;;16.70;6.20;;;;;;;-12.39;62.52;100930.02;1770797;81;21048;-56